sensor_id;sensor_type;location;lat;lon;timestamp;P1;durP1;ratioP1;P2;durP2;ratioP2
52614;SDS011;38508;53.158;6.614;2023-05-07T00:02:24;39.50;;;24.33;;
52614;SDS011;38508;53.158;6.614;2023-05-07T00:04:50;40.13;;;24.85;;
52614;SDS011;38508;53.158;6.614;2023-05-07T00:07:17;45.92;;;27.25;;
52614;SDS011;38508;53.158;6.614;2023-05-07T00:09:43;43.60;;;25.98;;
52614;SDS011;38508;53.158;6.614;2023-05-07T00:12:08;41.35;;;25.45;;
52614;SDS011;38508;53.158;6.614;2023-05-07T00:14:34;44.05;;;27.17;;
52614;SDS011;38508;53.158;6.614;2023-05-07T00:17:00;38.03;;;24.23;;
52614;SDS011;38508;53.158;6.614;2023-05-07T00:19:26;47.13;;;27.90;;
52614;SDS011;38508;53.158;6.614;2023-05-07T00:21:51;49.40;;;28.85;;
52614;SDS011;38508;53.158;6.614;2023-05-07T00:24:19;46.03;;;27.23;;
52614;SDS011;38508;53.158;6.614;2023-05-07T00:26:44;42.08;;;27.25;;
52614;SDS011;38508;53.158;6.614;2023-05-07T00:29:10;43.35;;;27.77;;
52614;SDS011;38508;53.158;6.614;2023-05-07T00:31:36;49.72;;;29.27;;
52614;SDS011;38508;53.158;6.614;2023-05-07T00:34:01;46.10;;;26.90;;
52614;SDS011;38508;53.158;6.614;2023-05-07T00:36:27;49.97;;;28.60;;
52614;SDS011;38508;53.158;6.614;2023-05-07T00:38:54;49.40;;;28.48;;
52614;SDS011;38508;53.158;6.614;2023-05-07T00:41:20;40.65;;;26.02;;
52614;SDS011;38508;53.158;6.614;2023-05-07T00:43:46;47.97;;;28.65;;
52614;SDS011;38508;53.158;6.614;2023-05-07T00:46:12;56.83;;;30.65;;
52614;SDS011;38508;53.158;6.614;2023-05-07T00:48:38;46.65;;;26.67;;
52614;SDS011;38508;53.158;6.614;2023-05-07T00:51:05;53.17;;;31.13;;
52614;SDS011;38508;53.158;6.614;2023-05-07T00:53:30;46.88;;;27.13;;
52614;SDS011;38508;53.158;6.614;2023-05-07T00:55:56;49.67;;;29.05;;
52614;SDS011;38508;53.158;6.614;2023-05-07T00:58:22;44.33;;;27.17;;
52614;SDS011;38508;53.158;6.614;2023-05-07T01:00:48;46.95;;;29.80;;
52614;SDS011;38508;53.158;6.614;2023-05-07T01:03:15;56.72;;;31.92;;
52614;SDS011;38508;53.158;6.614;2023-05-07T01:05:41;45.97;;;29.38;;
52614;SDS011;38508;53.158;6.614;2023-05-07T01:08:08;57.20;;;31.65;;
52614;SDS011;38508;53.158;6.614;2023-05-07T01:10:34;52.58;;;31.02;;
52614;SDS011;38508;53.158;6.614;2023-05-07T01:12:59;48.38;;;28.65;;
52614;SDS011;38508;53.158;6.614;2023-05-07T01:15:26;46.17;;;28.02;;
52614;SDS011;38508;53.158;6.614;2023-05-07T01:17:52;48.35;;;29.38;;
52614;SDS011;38508;53.158;6.614;2023-05-07T01:20:18;56.00;;;31.40;;
52614;SDS011;38508;53.158;6.614;2023-05-07T01:22:44;53.28;;;29.58;;
52614;SDS011;38508;53.158;6.614;2023-05-07T01:25:10;53.22;;;31.15;;
52614;SDS011;38508;53.158;6.614;2023-05-07T01:27:36;50.20;;;29.20;;
52614;SDS011;38508;53.158;6.614;2023-05-07T01:30:05;49.85;;;30.83;;
52614;SDS011;38508;53.158;6.614;2023-05-07T01:32:38;47.42;;;29.58;;
52614;SDS011;38508;53.158;6.614;2023-05-07T01:35:09;56.35;;;31.42;;
52614;SDS011;38508;53.158;6.614;2023-05-07T01:37:37;52.40;;;31.40;;
52614;SDS011;38508;53.158;6.614;2023-05-07T01:40:04;46.78;;;29.42;;
52614;SDS011;38508;53.158;6.614;2023-05-07T01:42:32;47.42;;;27.92;;
52614;SDS011;38508;53.158;6.614;2023-05-07T01:44:58;56.35;;;33.38;;
52614;SDS011;38508;53.158;6.614;2023-05-07T01:47:24;45.85;;;29.73;;
52614;SDS011;38508;53.158;6.614;2023-05-07T01:49:51;54.53;;;32.45;;
52614;SDS011;38508;53.158;6.614;2023-05-07T01:52:17;55.17;;;32.53;;
52614;SDS011;38508;53.158;6.614;2023-05-07T01:54:43;61.53;;;33.50;;
52614;SDS011;38508;53.158;6.614;2023-05-07T01:57:08;55.72;;;31.63;;
52614;SDS011;38508;53.158;6.614;2023-05-07T01:59:35;56.15;;;32.70;;
52614;SDS011;38508;53.158;6.614;2023-05-07T02:02:00;59.05;;;34.67;;
52614;SDS011;38508;53.158;6.614;2023-05-07T02:04:26;61.50;;;33.92;;
52614;SDS011;38508;53.158;6.614;2023-05-07T02:06:52;54.03;;;31.13;;
52614;SDS011;38508;53.158;6.614;2023-05-07T02:09:18;55.63;;;30.80;;
52614;SDS011;38508;53.158;6.614;2023-05-07T02:11:44;48.67;;;29.70;;
52614;SDS011;38508;53.158;6.614;2023-05-07T02:14:10;65.72;;;36.28;;
52614;SDS011;38508;53.158;6.614;2023-05-07T02:16:35;57.05;;;31.85;;
52614;SDS011;38508;53.158;6.614;2023-05-07T02:19:01;57.72;;;33.10;;
52614;SDS011;38508;53.158;6.614;2023-05-07T02:21:27;54.67;;;31.55;;
52614;SDS011;38508;53.158;6.614;2023-05-07T02:23:53;52.13;;;30.63;;
52614;SDS011;38508;53.158;6.614;2023-05-07T02:26:19;54.03;;;31.33;;
52614;SDS011;38508;53.158;6.614;2023-05-07T02:28:44;59.50;;;33.25;;
52614;SDS011;38508;53.158;6.614;2023-05-07T02:31:10;70.28;;;34.85;;
52614;SDS011;38508;53.158;6.614;2023-05-07T02:33:36;54.33;;;31.88;;
52614;SDS011;38508;53.158;6.614;2023-05-07T02:36:19;66.70;;;33.65;;
52614;SDS011;38508;53.158;6.614;2023-05-07T02:38:45;55.58;;;30.60;;
52614;SDS011;38508;53.158;6.614;2023-05-07T02:41:11;60.10;;;31.98;;
52614;SDS011;38508;53.158;6.614;2023-05-07T02:43:36;74.60;;;36.60;;
52614;SDS011;38508;53.158;6.614;2023-05-07T02:48:29;64.78;;;34.35;;
52614;SDS011;38508;53.158;6.614;2023-05-07T02:50:54;65.38;;;34.42;;
52614;SDS011;38508;53.158;6.614;2023-05-07T02:53:20;53.80;;;30.40;;
52614;SDS011;38508;53.158;6.614;2023-05-07T02:55:46;57.70;;;32.65;;
52614;SDS011;38508;53.158;6.614;2023-05-07T02:58:11;56.45;;;32.03;;
52614;SDS011;38508;53.158;6.614;2023-05-07T03:00:37;72.70;;;34.53;;
52614;SDS011;38508;53.158;6.614;2023-05-07T03:03:03;63.45;;;35.03;;
52614;SDS011;38508;53.158;6.614;2023-05-07T03:05:28;68.90;;;36.53;;
52614;SDS011;38508;53.158;6.614;2023-05-07T03:07:54;66.88;;;36.72;;
52614;SDS011;38508;53.158;6.614;2023-05-07T03:10:20;52.92;;;31.52;;
52614;SDS011;38508;53.158;6.614;2023-05-07T03:12:45;64.15;;;35.15;;
52614;SDS011;38508;53.158;6.614;2023-05-07T03:15:11;64.97;;;34.22;;
52614;SDS011;38508;53.158;6.614;2023-05-07T03:17:37;53.33;;;32.35;;
52614;SDS011;38508;53.158;6.614;2023-05-07T03:20:04;72.03;;;36.15;;
52614;SDS011;38508;53.158;6.614;2023-05-07T03:22:30;67.05;;;35.05;;
52614;SDS011;38508;53.158;6.614;2023-05-07T03:24:55;62.05;;;35.28;;
52614;SDS011;38508;53.158;6.614;2023-05-07T03:27:21;63.75;;;35.53;;
52614;SDS011;38508;53.158;6.614;2023-05-07T03:29:47;56.08;;;31.90;;
52614;SDS011;38508;53.158;6.614;2023-05-07T03:32:12;69.53;;;36.40;;
52614;SDS011;38508;53.158;6.614;2023-05-07T03:34:38;83.93;;;38.05;;
52614;SDS011;38508;53.158;6.614;2023-05-07T03:37:04;75.78;;;37.60;;
52614;SDS011;38508;53.158;6.614;2023-05-07T03:39:29;60.90;;;33.47;;
52614;SDS011;38508;53.158;6.614;2023-05-07T03:41:55;60.50;;;33.63;;
52614;SDS011;38508;53.158;6.614;2023-05-07T03:44:21;74.45;;;38.00;;
52614;SDS011;38508;53.158;6.614;2023-05-07T03:46:47;68.38;;;37.05;;
52614;SDS011;38508;53.158;6.614;2023-05-07T03:49:13;69.47;;;37.28;;
52614;SDS011;38508;53.158;6.614;2023-05-07T03:51:38;70.85;;;35.45;;
52614;SDS011;38508;53.158;6.614;2023-05-07T03:54:04;55.40;;;32.80;;
52614;SDS011;38508;53.158;6.614;2023-05-07T03:56:30;55.97;;;31.77;;
52614;SDS011;38508;53.158;6.614;2023-05-07T03:58:56;61.83;;;34.63;;
52614;SDS011;38508;53.158;6.614;2023-05-07T04:01:21;64.18;;;34.83;;
52614;SDS011;38508;53.158;6.614;2023-05-07T04:03:47;62.47;;;34.53;;
52614;SDS011;38508;53.158;6.614;2023-05-07T04:06:13;60.55;;;32.60;;
52614;SDS011;38508;53.158;6.614;2023-05-07T04:08:40;60.95;;;34.25;;
52614;SDS011;38508;53.158;6.614;2023-05-07T04:11:06;71.25;;;36.90;;
52614;SDS011;38508;53.158;6.614;2023-05-07T04:13:31;64.07;;;33.08;;
52614;SDS011;38508;53.158;6.614;2023-05-07T04:15:57;53.90;;;32.58;;
52614;SDS011;38508;53.158;6.614;2023-05-07T04:18:23;59.65;;;33.60;;
52614;SDS011;38508;53.158;6.614;2023-05-07T04:20:49;56.85;;;31.70;;
52614;SDS011;38508;53.158;6.614;2023-05-07T04:23:15;60.63;;;34.22;;
52614;SDS011;38508;53.158;6.614;2023-05-07T04:25:41;59.88;;;33.63;;
52614;SDS011;38508;53.158;6.614;2023-05-07T04:28:06;50.05;;;30.73;;
52614;SDS011;38508;53.158;6.614;2023-05-07T04:30:32;67.88;;;34.85;;
52614;SDS011;38508;53.158;6.614;2023-05-07T04:32:58;62.42;;;35.28;;
52614;SDS011;38508;53.158;6.614;2023-05-07T04:35:23;52.38;;;32.33;;
52614;SDS011;38508;53.158;6.614;2023-05-07T04:37:49;67.15;;;36.28;;
52614;SDS011;38508;53.158;6.614;2023-05-07T04:40:14;61.80;;;33.83;;
52614;SDS011;38508;53.158;6.614;2023-05-07T04:42:41;66.50;;;34.72;;
52614;SDS011;38508;53.158;6.614;2023-05-07T04:45:06;61.53;;;34.58;;
52614;SDS011;38508;53.158;6.614;2023-05-07T04:47:33;55.13;;;32.70;;
52614;SDS011;38508;53.158;6.614;2023-05-07T04:49:59;55.92;;;32.17;;
52614;SDS011;38508;53.158;6.614;2023-05-07T04:52:25;62.45;;;33.10;;
52614;SDS011;38508;53.158;6.614;2023-05-07T04:54:51;54.38;;;32.40;;
52614;SDS011;38508;53.158;6.614;2023-05-07T04:57:17;55.60;;;32.83;;
52614;SDS011;38508;53.158;6.614;2023-05-07T04:59:43;51.08;;;29.35;;
52614;SDS011;38508;53.158;6.614;2023-05-07T05:02:12;56.58;;;30.85;;
52614;SDS011;38508;53.158;6.614;2023-05-07T05:04:38;54.22;;;30.27;;
52614;SDS011;38508;53.158;6.614;2023-05-07T05:07:03;59.22;;;32.60;;
52614;SDS011;38508;53.158;6.614;2023-05-07T05:09:29;46.65;;;28.95;;
52614;SDS011;38508;53.158;6.614;2023-05-07T05:11:55;49.05;;;29.77;;
52614;SDS011;38508;53.158;6.614;2023-05-07T05:14:21;53.30;;;31.15;;
52614;SDS011;38508;53.158;6.614;2023-05-07T05:16:46;54.13;;;31.20;;
52614;SDS011;38508;53.158;6.614;2023-05-07T05:19:12;46.95;;;28.48;;
52614;SDS011;38508;53.158;6.614;2023-05-07T05:21:38;56.70;;;31.73;;
52614;SDS011;38508;53.158;6.614;2023-05-07T05:24:03;46.33;;;28.60;;
52614;SDS011;38508;53.158;6.614;2023-05-07T05:26:29;51.83;;;30.17;;
52614;SDS011;38508;53.158;6.614;2023-05-07T05:28:55;54.58;;;30.42;;
52614;SDS011;38508;53.158;6.614;2023-05-07T05:31:20;49.58;;;29.77;;
52614;SDS011;38508;53.158;6.614;2023-05-07T05:33:46;50.80;;;29.98;;
52614;SDS011;38508;53.158;6.614;2023-05-07T05:36:12;53.90;;;31.83;;
52614;SDS011;38508;53.158;6.614;2023-05-07T05:38:38;47.30;;;28.85;;
52614;SDS011;38508;53.158;6.614;2023-05-07T05:41:05;48.55;;;28.48;;
52614;SDS011;38508;53.158;6.614;2023-05-07T05:43:30;47.42;;;28.48;;
52614;SDS011;38508;53.158;6.614;2023-05-07T05:45:56;48.42;;;29.50;;
52614;SDS011;38508;53.158;6.614;2023-05-07T05:48:22;50.17;;;28.42;;
52614;SDS011;38508;53.158;6.614;2023-05-07T05:50:48;56.13;;;31.90;;
52614;SDS011;38508;53.158;6.614;2023-05-07T05:53:14;46.90;;;28.45;;
52614;SDS011;38508;53.158;6.614;2023-05-07T05:55:41;39.95;;;26.42;;
52614;SDS011;38508;53.158;6.614;2023-05-07T05:58:07;53.05;;;30.52;;
52614;SDS011;38508;53.158;6.614;2023-05-07T06:00:33;53.75;;;29.42;;
52614;SDS011;38508;53.158;6.614;2023-05-07T06:02:59;44.80;;;28.42;;
52614;SDS011;38508;53.158;6.614;2023-05-07T06:05:25;45.35;;;28.67;;
52614;SDS011;38508;53.158;6.614;2023-05-07T06:07:50;50.78;;;30.05;;
52614;SDS011;38508;53.158;6.614;2023-05-07T06:10:16;43.90;;;27.88;;
52614;SDS011;38508;53.158;6.614;2023-05-07T06:12:42;50.38;;;29.77;;
52614;SDS011;38508;53.158;6.614;2023-05-07T06:15:08;52.65;;;29.88;;
52614;SDS011;38508;53.158;6.614;2023-05-07T06:17:34;51.00;;;31.48;;
52614;SDS011;38508;53.158;6.614;2023-05-07T06:20:00;49.05;;;30.52;;
52614;SDS011;38508;53.158;6.614;2023-05-07T06:22:25;49.63;;;29.17;;
52614;SDS011;38508;53.158;6.614;2023-05-07T06:24:51;45.67;;;28.50;;
52614;SDS011;38508;53.158;6.614;2023-05-07T06:27:17;49.45;;;29.25;;
52614;SDS011;38508;53.158;6.614;2023-05-07T06:29:42;53.63;;;29.90;;
52614;SDS011;38508;53.158;6.614;2023-05-07T06:32:08;40.67;;;26.38;;
52614;SDS011;38508;53.158;6.614;2023-05-07T06:34:35;48.40;;;29.08;;
52614;SDS011;38508;53.158;6.614;2023-05-07T06:37:02;45.10;;;28.77;;
52614;SDS011;38508;53.158;6.614;2023-05-07T06:39:28;43.55;;;26.63;;
52614;SDS011;38508;53.158;6.614;2023-05-07T06:41:53;54.72;;;30.10;;
52614;SDS011;38508;53.158;6.614;2023-05-07T06:44:19;50.13;;;30.52;;
52614;SDS011;38508;53.158;6.614;2023-05-07T06:46:45;39.67;;;25.00;;
52614;SDS011;38508;53.158;6.614;2023-05-07T06:49:11;42.75;;;26.23;;
52614;SDS011;38508;53.158;6.614;2023-05-07T06:51:37;44.88;;;27.48;;
52614;SDS011;38508;53.158;6.614;2023-05-07T06:54:03;43.67;;;25.55;;
52614;SDS011;38508;53.158;6.614;2023-05-07T06:56:29;46.30;;;26.83;;
52614;SDS011;38508;53.158;6.614;2023-05-07T06:58:56;45.35;;;27.52;;
52614;SDS011;38508;53.158;6.614;2023-05-07T07:01:21;41.60;;;25.52;;
52614;SDS011;38508;53.158;6.614;2023-05-07T07:03:47;41.42;;;25.45;;
52614;SDS011;38508;53.158;6.614;2023-05-07T07:06:13;39.63;;;24.67;;
52614;SDS011;38508;53.158;6.614;2023-05-07T07:08:38;42.83;;;26.33;;
52614;SDS011;38508;53.158;6.614;2023-05-07T07:11:04;42.83;;;26.27;;
52614;SDS011;38508;53.158;6.614;2023-05-07T07:13:31;48.17;;;28.52;;
52614;SDS011;38508;53.158;6.614;2023-05-07T07:15:56;47.45;;;26.63;;
52614;SDS011;38508;53.158;6.614;2023-05-07T07:18:22;39.53;;;25.63;;
52614;SDS011;38508;53.158;6.614;2023-05-07T07:20:48;42.25;;;26.20;;
52614;SDS011;38508;53.158;6.614;2023-05-07T07:23:14;46.58;;;26.42;;
52614;SDS011;38508;53.158;6.614;2023-05-07T07:25:39;47.33;;;25.85;;
52614;SDS011;38508;53.158;6.614;2023-05-07T07:28:05;42.60;;;25.55;;
52614;SDS011;38508;53.158;6.614;2023-05-07T07:30:31;37.95;;;24.30;;
52614;SDS011;38508;53.158;6.614;2023-05-07T07:32:56;46.88;;;27.05;;
52614;SDS011;38508;53.158;6.614;2023-05-07T07:35:27;48.13;;;27.60;;
52614;SDS011;38508;53.158;6.614;2023-05-07T07:37:56;45.00;;;25.95;;
52614;SDS011;38508;53.158;6.614;2023-05-07T07:40:22;43.17;;;26.73;;
52614;SDS011;38508;53.158;6.614;2023-05-07T07:42:48;39.63;;;24.77;;
52614;SDS011;38508;53.158;6.614;2023-05-07T07:45:14;40.08;;;24.35;;
52614;SDS011;38508;53.158;6.614;2023-05-07T07:47:40;42.67;;;25.73;;
52614;SDS011;38508;53.158;6.614;2023-05-07T07:50:06;40.13;;;25.30;;
52614;SDS011;38508;53.158;6.614;2023-05-07T07:52:32;40.35;;;24.45;;
52614;SDS011;38508;53.158;6.614;2023-05-07T07:54:58;41.72;;;26.50;;
52614;SDS011;38508;53.158;6.614;2023-05-07T07:57:24;45.35;;;27.38;;
52614;SDS011;38508;53.158;6.614;2023-05-07T07:59:50;41.30;;;26.20;;
52614;SDS011;38508;53.158;6.614;2023-05-07T08:02:16;43.90;;;26.13;;
52614;SDS011;38508;53.158;6.614;2023-05-07T08:04:42;44.40;;;27.05;;
52614;SDS011;38508;53.158;6.614;2023-05-07T08:07:11;43.90;;;27.75;;
52614;SDS011;38508;53.158;6.614;2023-05-07T08:09:38;39.33;;;25.27;;
52614;SDS011;38508;53.158;6.614;2023-05-07T08:12:05;42.13;;;26.27;;
52614;SDS011;38508;53.158;6.614;2023-05-07T08:14:31;38.53;;;24.88;;
52614;SDS011;38508;53.158;6.614;2023-05-07T08:16:56;36.55;;;24.30;;
52614;SDS011;38508;53.158;6.614;2023-05-07T08:19:22;36.17;;;24.15;;
52614;SDS011;38508;53.158;6.614;2023-05-07T08:21:48;38.83;;;24.05;;
52614;SDS011;38508;53.158;6.614;2023-05-07T08:24:14;38.53;;;24.15;;
52614;SDS011;38508;53.158;6.614;2023-05-07T08:26:40;40.40;;;24.58;;
52614;SDS011;38508;53.158;6.614;2023-05-07T08:29:06;40.42;;;24.35;;
52614;SDS011;38508;53.158;6.614;2023-05-07T08:31:32;37.22;;;23.10;;
52614;SDS011;38508;53.158;6.614;2023-05-07T08:33:58;38.70;;;24.10;;
52614;SDS011;38508;53.158;6.614;2023-05-07T08:36:24;34.40;;;22.95;;
52614;SDS011;38508;53.158;6.614;2023-05-07T08:38:51;38.33;;;24.67;;
52614;SDS011;38508;53.158;6.614;2023-05-07T08:41:17;38.42;;;23.52;;
52614;SDS011;38508;53.158;6.614;2023-05-07T08:43:44;36.75;;;23.38;;
52614;SDS011;38508;53.158;6.614;2023-05-07T08:46:16;36.47;;;23.70;;
52614;SDS011;38508;53.158;6.614;2023-05-07T08:48:49;33.88;;;22.70;;
52614;SDS011;38508;53.158;6.614;2023-05-07T08:51:16;35.03;;;23.13;;
52614;SDS011;38508;53.158;6.614;2023-05-07T08:53:43;38.72;;;23.45;;
52614;SDS011;38508;53.158;6.614;2023-05-07T08:56:09;36.85;;;23.95;;
52614;SDS011;38508;53.158;6.614;2023-05-07T08:58:36;34.50;;;23.10;;
52614;SDS011;38508;53.158;6.614;2023-05-07T09:01:09;33.58;;;21.45;;
52614;SDS011;38508;53.158;6.614;2023-05-07T09:03:41;38.08;;;24.13;;
52614;SDS011;38508;53.158;6.614;2023-05-07T09:06:09;39.40;;;23.50;;
52614;SDS011;38508;53.158;6.614;2023-05-07T09:08:35;35.42;;;23.23;;
52614;SDS011;38508;53.158;6.614;2023-05-07T09:11:01;35.85;;;22.70;;
52614;SDS011;38508;53.158;6.614;2023-05-07T09:13:28;33.47;;;21.90;;
52614;SDS011;38508;53.158;6.614;2023-05-07T09:15:56;33.33;;;21.70;;
52614;SDS011;38508;53.158;6.614;2023-05-07T09:18:25;31.08;;;20.67;;
52614;SDS011;38508;53.158;6.614;2023-05-07T09:20:53;31.27;;;21.42;;
52614;SDS011;38508;53.158;6.614;2023-05-07T09:23:25;36.08;;;21.50;;
52614;SDS011;38508;53.158;6.614;2023-05-07T09:25:52;35.28;;;21.02;;
52614;SDS011;38508;53.158;6.614;2023-05-07T09:28:29;38.88;;;24.17;;
52614;SDS011;38508;53.158;6.614;2023-05-07T09:30:55;36.47;;;22.08;;
52614;SDS011;38508;53.158;6.614;2023-05-07T09:33:20;35.47;;;22.73;;
52614;SDS011;38508;53.158;6.614;2023-05-07T09:35:47;32.78;;;21.33;;
52614;SDS011;38508;53.158;6.614;2023-05-07T09:38:17;34.83;;;22.08;;
52614;SDS011;38508;53.158;6.614;2023-05-07T09:40:45;36.63;;;23.23;;
52614;SDS011;38508;53.158;6.614;2023-05-07T09:43:13;33.15;;;21.40;;
52614;SDS011;38508;53.158;6.614;2023-05-07T09:45:39;38.05;;;22.02;;
52614;SDS011;38508;53.158;6.614;2023-05-07T09:48:15;31.92;;;20.73;;
52614;SDS011;38508;53.158;6.614;2023-05-07T09:50:47;36.47;;;22.50;;
52614;SDS011;38508;53.158;6.614;2023-05-07T09:53:15;37.72;;;23.40;;
52614;SDS011;38508;53.158;6.614;2023-05-07T09:55:42;32.95;;;22.05;;
52614;SDS011;38508;53.158;6.614;2023-05-07T09:58:08;35.65;;;22.27;;
52614;SDS011;38508;53.158;6.614;2023-05-07T10:00:37;33.42;;;21.77;;
52614;SDS011;38508;53.158;6.614;2023-05-07T10:03:11;34.00;;;22.10;;
52614;SDS011;38508;53.158;6.614;2023-05-07T10:05:39;29.98;;;21.10;;
52614;SDS011;38508;53.158;6.614;2023-05-07T10:08:05;31.90;;;20.65;;
52614;SDS011;38508;53.158;6.614;2023-05-07T10:10:33;34.05;;;22.20;;
52614;SDS011;38508;53.158;6.614;2023-05-07T10:12:59;29.15;;;20.40;;
52614;SDS011;38508;53.158;6.614;2023-05-07T10:15:27;36.30;;;21.80;;
52614;SDS011;38508;53.158;6.614;2023-05-07T10:17:54;32.83;;;21.08;;
52614;SDS011;38508;53.158;6.614;2023-05-07T10:20:20;30.38;;;20.13;;
52614;SDS011;38508;53.158;6.614;2023-05-07T10:22:47;29.05;;;19.02;;
52614;SDS011;38508;53.158;6.614;2023-05-07T10:25:16;28.25;;;19.75;;
52614;SDS011;38508;53.158;6.614;2023-05-07T10:27:46;33.38;;;20.67;;
52614;SDS011;38508;53.158;6.614;2023-05-07T10:32:51;32.40;;;21.67;;
52614;SDS011;38508;53.158;6.614;2023-05-07T10:35:25;28.88;;;19.65;;
52614;SDS011;38508;53.158;6.614;2023-05-07T10:37:54;29.45;;;20.60;;
52614;SDS011;38508;53.158;6.614;2023-05-07T10:40:20;28.52;;;19.88;;
52614;SDS011;38508;53.158;6.614;2023-05-07T10:42:53;27.33;;;19.15;;
52614;SDS011;38508;53.158;6.614;2023-05-07T10:45:20;29.52;;;19.83;;
52614;SDS011;38508;53.158;6.614;2023-05-07T10:48:06;25.02;;;18.73;;
52614;SDS011;38508;53.158;6.614;2023-05-07T10:50:39;28.80;;;18.98;;
52614;SDS011;38508;53.158;6.614;2023-05-07T10:55:44;23.42;;;17.55;;
52614;SDS011;38508;53.158;6.614;2023-05-07T10:58:43;26.27;;;18.52;;
52614;SDS011;38508;53.158;6.614;2023-05-07T11:01:02;25.52;;;17.60;;
52614;SDS011;38508;53.158;6.614;2023-05-07T11:03:29;23.77;;;17.42;;
52614;SDS011;38508;53.158;6.614;2023-05-07T11:06:13;26.83;;;17.70;;
52614;SDS011;38508;53.158;6.614;2023-05-07T11:11:17;22.75;;;16.52;;
52614;SDS011;38508;53.158;6.614;2023-05-07T11:13:45;22.88;;;16.88;;
52614;SDS011;38508;53.158;6.614;2023-05-07T11:16:23;22.52;;;16.85;;
52614;SDS011;38508;53.158;6.614;2023-05-07T11:18:51;22.30;;;16.70;;
52614;SDS011;38508;53.158;6.614;2023-05-07T11:21:33;22.38;;;15.88;;
52614;SDS011;38508;53.158;6.614;2023-05-07T11:24:07;22.35;;;15.38;;
52614;SDS011;38508;53.158;6.614;2023-05-07T11:29:31;21.63;;;16.88;;
52614;SDS011;38508;53.158;6.614;2023-05-07T11:31:57;25.75;;;16.65;;
52614;SDS011;38508;53.158;6.614;2023-05-07T11:34:25;22.48;;;16.77;;
52614;SDS011;38508;53.158;6.614;2023-05-07T11:36:51;20.92;;;16.70;;
52614;SDS011;38508;53.158;6.614;2023-05-07T11:39:27;22.63;;;17.08;;
52614;SDS011;38508;53.158;6.614;2023-05-07T11:41:56;23.25;;;17.25;;
52614;SDS011;38508;53.158;6.614;2023-05-07T11:44:22;20.15;;;15.57;;
52614;SDS011;38508;53.158;6.614;2023-05-07T11:46:48;20.88;;;14.43;;
52614;SDS011;38508;53.158;6.614;2023-05-07T11:49:14;21.65;;;16.52;;
52614;SDS011;38508;53.158;6.614;2023-05-07T11:51:40;16.88;;;14.57;;
52614;SDS011;38508;53.158;6.614;2023-05-07T11:54:07;20.50;;;14.70;;
52614;SDS011;38508;53.158;6.614;2023-05-07T11:56:36;17.70;;;13.93;;
52614;SDS011;38508;53.158;6.614;2023-05-07T11:59:02;17.55;;;14.02;;
52614;SDS011;38508;53.158;6.614;2023-05-07T12:01:28;18.25;;;13.82;;
52614;SDS011;38508;53.158;6.614;2023-05-07T12:03:54;18.08;;;14.10;;
52614;SDS011;38508;53.158;6.614;2023-05-07T12:06:19;18.20;;;14.52;;
52614;SDS011;38508;53.158;6.614;2023-05-07T12:08:45;18.70;;;14.57;;
52614;SDS011;38508;53.158;6.614;2023-05-07T12:11:29;17.92;;;13.85;;
52614;SDS011;38508;53.158;6.614;2023-05-07T12:13:55;16.17;;;13.20;;
52614;SDS011;38508;53.158;6.614;2023-05-07T12:16:21;20.50;;;14.15;;
52614;SDS011;38508;53.158;6.614;2023-05-07T12:18:47;16.83;;;12.43;;
52614;SDS011;38508;53.158;6.614;2023-05-07T12:21:14;17.08;;;13.20;;
52614;SDS011;38508;53.158;6.614;2023-05-07T12:23:42;19.73;;;13.27;;
52614;SDS011;38508;53.158;6.614;2023-05-07T12:26:08;17.50;;;13.88;;
52614;SDS011;38508;53.158;6.614;2023-05-07T12:28:41;18.23;;;14.55;;
52614;SDS011;38508;53.158;6.614;2023-05-07T12:31:07;17.15;;;13.98;;
52614;SDS011;38508;53.158;6.614;2023-05-07T12:33:34;17.80;;;13.65;;
52614;SDS011;38508;53.158;6.614;2023-05-07T12:36:02;17.70;;;13.90;;
52614;SDS011;38508;53.158;6.614;2023-05-07T12:38:34;15.85;;;13.43;;
52614;SDS011;38508;53.158;6.614;2023-05-07T12:41:01;16.77;;;14.35;;
52614;SDS011;38508;53.158;6.614;2023-05-07T12:43:28;17.58;;;14.32;;
52614;SDS011;38508;53.158;6.614;2023-05-07T12:45:55;16.65;;;13.43;;
52614;SDS011;38508;53.158;6.614;2023-05-07T12:48:22;15.70;;;13.35;;
52614;SDS011;38508;53.158;6.614;2023-05-07T12:50:51;16.45;;;14.32;;
52614;SDS011;38508;53.158;6.614;2023-05-07T12:53:21;18.65;;;14.60;;
52614;SDS011;38508;53.158;6.614;2023-05-07T12:55:49;16.85;;;14.25;;
52614;SDS011;38508;53.158;6.614;2023-05-07T12:58:26;16.98;;;14.45;;
52614;SDS011;38508;53.158;6.614;2023-05-07T13:00:53;17.15;;;13.70;;
52614;SDS011;38508;53.158;6.614;2023-05-07T13:03:23;17.15;;;13.50;;
52614;SDS011;38508;53.158;6.614;2023-05-07T13:06:03;17.27;;;13.55;;
52614;SDS011;38508;53.158;6.614;2023-05-07T13:08:30;13.90;;;11.85;;
52614;SDS011;38508;53.158;6.614;2023-05-07T13:10:57;16.38;;;14.30;;
52614;SDS011;38508;53.158;6.614;2023-05-07T13:13:25;14.75;;;12.55;;
52614;SDS011;38508;53.158;6.614;2023-05-07T13:15:51;14.95;;;12.77;;
52614;SDS011;38508;53.158;6.614;2023-05-07T13:18:17;14.07;;;12.32;;
52614;SDS011;38508;53.158;6.614;2023-05-07T13:20:42;15.73;;;13.30;;
52614;SDS011;38508;53.158;6.614;2023-05-07T13:23:08;12.85;;;11.10;;
52614;SDS011;38508;53.158;6.614;2023-05-07T13:25:34;13.50;;;12.10;;
52614;SDS011;38508;53.158;6.614;2023-05-07T13:28:00;16.00;;;11.90;;
52614;SDS011;38508;53.158;6.614;2023-05-07T13:30:25;16.17;;;13.18;;
52614;SDS011;38508;53.158;6.614;2023-05-07T13:32:53;15.50;;;12.40;;
52614;SDS011;38508;53.158;6.614;2023-05-07T13:35:20;14.13;;;11.68;;
52614;SDS011;38508;53.158;6.614;2023-05-07T13:37:46;15.10;;;13.38;;
52614;SDS011;38508;53.158;6.614;2023-05-07T13:40:14;16.50;;;12.77;;
52614;SDS011;38508;53.158;6.614;2023-05-07T13:42:40;16.05;;;12.90;;
52614;SDS011;38508;53.158;6.614;2023-05-07T13:45:06;14.70;;;12.82;;
52614;SDS011;38508;53.158;6.614;2023-05-07T13:47:32;15.75;;;11.80;;
52614;SDS011;38508;53.158;6.614;2023-05-07T13:49:58;12.98;;;10.85;;
52614;SDS011;38508;53.158;6.614;2023-05-07T13:52:23;13.30;;;11.80;;
52614;SDS011;38508;53.158;6.614;2023-05-07T13:54:49;13.00;;;11.40;;
52614;SDS011;38508;53.158;6.614;2023-05-07T13:57:17;14.27;;;11.55;;
52614;SDS011;38508;53.158;6.614;2023-05-07T13:59:43;15.65;;;11.77;;
52614;SDS011;38508;53.158;6.614;2023-05-07T14:02:08;13.55;;;10.93;;
52614;SDS011;38508;53.158;6.614;2023-05-07T14:04:34;13.70;;;11.38;;
52614;SDS011;38508;53.158;6.614;2023-05-07T14:07:00;13.25;;;11.80;;
52614;SDS011;38508;53.158;6.614;2023-05-07T14:09:26;13.40;;;11.27;;
52614;SDS011;38508;53.158;6.614;2023-05-07T14:11:51;13.80;;;11.93;;
52614;SDS011;38508;53.158;6.614;2023-05-07T14:14:17;14.23;;;10.85;;
52614;SDS011;38508;53.158;6.614;2023-05-07T14:16:43;13.60;;;11.27;;
52614;SDS011;38508;53.158;6.614;2023-05-07T14:19:10;13.23;;;10.85;;
52614;SDS011;38508;53.158;6.614;2023-05-07T14:21:36;14.07;;;9.88;;
52614;SDS011;38508;53.158;6.614;2023-05-07T14:24:02;14.75;;;11.68;;
52614;SDS011;38508;53.158;6.614;2023-05-07T14:26:28;12.05;;;10.20;;
52614;SDS011;38508;53.158;6.614;2023-05-07T14:28:54;10.93;;;9.68;;
52614;SDS011;38508;53.158;6.614;2023-05-07T14:31:22;11.02;;;9.93;;
52614;SDS011;38508;53.158;6.614;2023-05-07T14:33:48;10.88;;;9.30;;